Time;durP1;ratioP1;P1;durP2;ratioP2;P2;SDS_P1;SDS_P2;PMS_P1;PMS_P2;Temp;Humidity;BMP_temperature;BMP_pressure;BME280_temperature;BME280_humidity;BME280_pressure;Samples;Min_cycle;Max_cycle;Signal;HPM_P1;HPM_P2
2021/11/19 00:01:58;;;;;;;45.53;25.15;;;;;;;;;;6289336;22;19999;-78
2021/11/19 00:04:25;;;;;;;43.50;23.95;;;;;;;;;;6318549;22;20003;-78
2021/11/19 00:06:52;;;;;;;41.38;23.45;;;;;;;;;;6290615;22;20490;-79
2021/11/19 00:09:21;;;;;;;37.75;23.50;;;;;;;;;;6265064;22;20007;-79
2021/11/19 00:11:49;;;;;;;36.38;23.02;;;;;;;;;;6292916;22;20013;-78
2021/11/19 00:14:16;;;;;;;46.50;27.95;;;;;;;;;;6293561;22;20003;-78
2021/11/19 00:16:43;;;;;;;42.40;25.65;;;;;;;;;;6289403;22;20557;-79
2021/11/19 00:19:11;;;;;;;38.00;22.77;;;;;;;;;;6262495;22;20003;-78
2021/11/19 00:21:38;;;;;;;39.60;21.25;;;;;;;;;;6287276;22;20017;-79
2021/11/19 00:24:13;;;;;;;35.83;21.27;;;;;;;;;;6288721;22;19995;-78
2021/11/19 00:26:40;;;;;;;35.83;20.60;;;;;;;;;;6282043;22;20356;-78
2021/11/19 00:29:06;;;;;;;34.33;21.25;;;;;;;;;;6316251;22;20001;-78
2021/11/19 00:31:32;;;;;;;36.15;21.27;;;;;;;;;;6289700;22;20030;-78
2021/11/19 00:34:03;;;;;;;33.58;21.50;;;;;;;;;;6316887;22;20003;-78
2021/11/19 00:36:30;;;;;;;40.05;21.88;;;;;;;;;;6265309;22;20003;-78
2021/11/19 00:38:59;;;;;;;35.40;21.98;;;;;;;;;;6293042;22;20004;-78
2021/11/19 00:41:25;;;;;;;35.90;21.95;;;;;;;;;;6316592;22;19997;-77
2021/11/19 00:43:52;;;;;;;37.53;22.73;;;;;;;;;;6322914;22;20003;-79
2021/11/19 00:46:30;;;;;;;34.92;20.20;;;;;;;;;;6271099;22;20022;-79
2021/11/19 00:48:57;;;;;;;35.97;20.17;;;;;;;;;;6292688;22;20000;-78
2021/11/19 00:51:27;;;;;;;35.97;20.98;;;;;;;;;;6317610;22;20332;-78
2021/11/19 00:54:04;;;;;;;35.05;19.63;;;;;;;;;;6291931;22;20009;-79
2021/11/19 00:56:43;;;;;;;34.47;19.98;;;;;;;;;;6315200;22;20011;-79
2021/11/19 00:59:11;;;;;;;32.22;19.70;;;;;;;;;;6289935;22;20000;-79
2021/11/19 01:01:40;;;;;;;32.15;19.42;;;;;;;;;;6288840;22;20020;-78
2021/11/19 01:04:08;;;;;;;32.45;20.17;;;;;;;;;;6289973;22;20007;-78
2021/11/19 01:06:34;;;;;;;30.35;19.23;;;;;;;;;;6287591;22;19999;-78
2021/11/19 01:09:01;;;;;;;32.47;19.75;;;;;;;;;;6315187;22;20026;-78
2021/11/19 01:11:29;;;;;;;34.25;18.70;;;;;;;;;;6292974;22;20011;-78
2021/11/19 01:13:56;;;;;;;31.30;18.65;;;;;;;;;;6289257;22;20019;-77
2021/11/19 01:16:31;;;;;;;30.13;18.95;;;;;;;;;;6290418;22;20432;-78
2021/11/19 01:19:04;;;;;;;25.65;17.35;;;;;;;;;;6297141;22;20003;-79
2021/11/19 01:21:38;;;;;;;28.58;18.20;;;;;;;;;;6294955;22;19999;-79
2021/11/19 01:24:07;;;;;;;28.38;17.05;;;;;;;;;;6293664;22;20011;-78
2021/11/19 01:26:37;;;;;;;31.75;17.98;;;;;;;;;;6299432;22;20015;-79
2021/11/19 01:29:06;;;;;;;29.13;17.65;;;;;;;;;;6290696;22;20002;-78
2021/11/19 01:31:36;;;;;;;31.60;18.30;;;;;;;;;;6314190;22;20006;-78
2021/11/19 01:34:03;;;;;;;31.30;18.27;;;;;;;;;;6315818;22;20007;-78
2021/11/19 01:36:30;;;;;;;27.70;18.63;;;;;;;;;;6314216;22;20011;-78
2021/11/19 01:38:56;;;;;;;32.55;19.65;;;;;;;;;;6287409;22;20004;-78
2021/11/19 01:41:32;;;;;;;28.38;18.75;;;;;;;;;;6285834;22;20061;-78
2021/11/19 01:43:59;;;;;;;30.38;18.80;;;;;;;;;;6286562;22;20019;-77
2021/11/19 01:46:26;;;;;;;30.42;19.33;;;;;;;;;;6312018;22;20376;-77
2021/11/19 01:48:55;;;;;;;28.90;18.23;;;;;;;;;;6285282;22;20094;-78
2021/11/19 01:51:45;;;;;;;29.00;18.83;;;;;;;;;;6285563;22;20432;-78
2021/11/19 01:54:21;;;;;;;27.42;18.98;;;;;;;;;;6293215;22;20011;-78
2021/11/19 01:57:05;;;;;;;25.33;17.38;;;;;;;;;;6313583;22;19996;-78
2021/11/19 01:59:38;;;;;;;28.10;17.88;;;;;;;;;;6314076;22;20006;-77
2021/11/19 02:02:25;;;;;;;26.23;17.13;;;;;;;;;;6315564;22;20072;-77
2021/11/19 02:04:56;;;;;;;25.23;16.30;;;;;;;;;;6312175;22;19999;-78
2021/11/19 02:07:23;;;;;;;25.58;16.17;;;;;;;;;;6286183;22;20023;-78
2021/11/19 02:09:55;;;;;;;25.25;16.08;;;;;;;;;;6313936;22;20009;-78
2021/11/19 02:12:27;;;;;;;23.77;16.42;;;;;;;;;;6286980;22;20011;-78
2021/11/19 02:15:00;;;;;;;22.45;15.60;;;;;;;;;;6313996;22;19996;-79
2021/11/19 02:17:26;;;;;;;24.08;15.35;;;;;;;;;;6314060;22;19999;-78
2021/11/19 02:19:55;;;;;;;27.48;15.13;;;;;;;;;;6313358;22;20003;-78
2021/11/19 02:22:32;;;;;;;25.85;14.77;;;;;;;;;;6285022;22;20011;-78
2021/11/19 02:25:00;;;;;;;23.90;15.77;;;;;;;;;;6285969;22;19991;-78
2021/11/19 02:27:33;;;;;;;25.30;15.00;;;;;;;;;;6285955;22;20003;-78
2021/11/19 02:30:01;;;;;;;28.20;15.68;;;;;;;;;;6312384;22;20000;-77
2021/11/19 02:32:32;;;;;;;23.92;15.48;;;;;;;;;;6312018;22;19999;-78
2021/11/19 02:34:59;;;;;;;26.90;15.70;;;;;;;;;;6284847;22;20412;-78
2021/11/19 02:37:27;;;;;;;29.90;15.50;;;;;;;;;;6285182;22;20104;-77
2021/11/19 02:39:55;;;;;;;31.75;17.83;;;;;;;;;;6289470;22;20009;-77
2021/11/19 02:42:21;;;;;;;28.25;17.20;;;;;;;;;;6286640;22;20015;-78
2021/11/19 02:44:49;;;;;;;35.08;23.05;;;;;;;;;;6285901;22;20057;-78
2021/11/19 02:47:19;;;;;;;53.53;32.00;;;;;;;;;;6314067;22;19999;-77
2021/11/19 02:49:45;;;;;;;33.85;21.00;;;;;;;;;;6311479;22;20006;-77
2021/11/19 02:52:17;;;;;;;26.13;17.38;;;;;;;;;;6286838;22;20042;-78
2021/11/19 02:54:43;;;;;;;21.58;15.30;;;;;;;;;;6310676;22;20076;-78
2021/11/19 02:57:09;;;;;;;22.85;15.20;;;;;;;;;;6310526;22;20006;-77
2021/11/19 02:59:35;;;;;;;20.00;13.10;;;;;;;;;;6310148;22;19995;-77
2021/11/19 03:02:09;;;;;;;22.17;14.10;;;;;;;;;;6309307;22;20412;-78
2021/11/19 03:04:35;;;;;;;;;;;;;;;;;;6311466;22;20003;-77
2021/11/19 03:07:02;;;;;;;25.70;14.23;;;;;;;;;;6310849;22;19899;-78
2021/11/19 03:09:42;;;;;;;24.48;15.15;;;;;;;;;;6316375;22;20004;-78
2021/11/19 03:12:10;;;;;;;28.98;17.33;;;;;;;;;;6310154;22;20000;-78
2021/11/19 03:14:37;;;;;;;26.55;17.45;;;;;;;;;;6310738;22;19998;-77
2021/11/19 03:17:04;;;;;;;26.80;16.75;;;;;;;;;;6310407;22;20005;-78
2021/11/19 03:19:30;;;;;;;31.65;17.23;;;;;;;;;;6312577;22;20396;-78
2021/11/19 03:21:56;;;;;;;25.25;15.48;;;;;;;;;;6282242;22;20042;-78
2021/11/19 03:24:23;;;;;;;21.88;15.20;;;;;;;;;;6282072;22;20003;-77
2021/11/19 03:26:50;;;;;;;25.33;15.63;;;;;;;;;;6283023;22;20003;-77
2021/11/19 03:29:18;;;;;;;22.63;14.48;;;;;;;;;;6311474;22;20010;-77
2021/11/19 03:31:44;;;;;;;24.95;15.57;;;;;;;;;;6313854;22;20412;-78
2021/11/19 03:34:11;;;;;;;26.02;14.93;;;;;;;;;;6285603;22;20362;-78
2021/11/19 03:36:38;;;;;;;21.63;14.85;;;;;;;;;;6285283;22;20328;-78
2021/11/19 03:39:05;;;;;;;27.50;14.85;;;;;;;;;;6286481;22;20031;-78
2021/11/19 03:41:32;;;;;;;24.08;14.23;;;;;;;;;;6286398;22;19999;-78
2021/11/19 03:44:01;;;;;;;22.13;14.57;;;;;;;;;;6285738;22;20428;-78
2021/11/19 03:46:30;;;;;;;25.85;14.25;;;;;;;;;;6284138;22;20427;-78
2021/11/19 03:48:58;;;;;;;23.98;14.30;;;;;;;;;;6312434;22;19995;-77
2021/11/19 03:51:29;;;;;;;22.48;13.50;;;;;;;;;;6278822;22;20034;-78
2021/11/19 03:53:55;;;;;;;21.55;14.25;;;;;;;;;;6311265;22;20066;-78
2021/11/19 03:56:22;;;;;;;24.38;15.07;;;;;;;;;;6313171;22;20134;-78
2021/11/19 03:58:49;;;;;;;23.45;15.00;;;;;;;;;;6284738;22;20045;-78
2021/11/19 04:01:29;;;;;;;22.35;14.73;;;;;;;;;;6311749;22;19999;-77
2021/11/19 04:03:55;;;;;;;22.52;14.13;;;;;;;;;;6311862;22;20011;-77
2021/11/19 04:06:22;;;;;;;26.08;14.80;;;;;;;;;;6311422;22;19996;-78
2021/11/19 04:08:50;;;;;;;23.67;14.15;;;;;;;;;;6312226;22;19999;-77
2021/11/19 04:11:16;;;;;;;24.80;13.88;;;;;;;;;;6309177;22;20373;-78
2021/11/19 04:13:43;;;;;;;20.75;13.68;;;;;;;;;;6309584;22;19996;-77
2021/11/19 04:16:12;;;;;;;25.17;14.02;;;;;;;;;;6281709;22;20026;-78
2021/11/19 04:18:38;;;;;;;22.33;14.55;;;;;;;;;;6283848;22;20003;-77
2021/11/19 04:21:05;;;;;;;21.67;14.15;;;;;;;;;;6283837;22;20046;-77
2021/11/19 04:23:31;;;;;;;19.13;13.25;;;;;;;;;;6312037;22;20012;-78
2021/11/19 04:25:58;;;;;;;25.60;14.82;;;;;;;;;;6286523;22;20010;-78
2021/11/19 04:28:25;;;;;;;18.13;13.25;;;;;;;;;;6284251;22;20011;-76
2021/11/19 04:30:52;;;;;;;20.55;14.35;;;;;;;;;;6284810;22;20004;-78
2021/11/19 04:33:19;;;;;;;22.70;15.10;;;;;;;;;;6310732;22;20010;-78
2021/11/19 04:35:46;;;;;;;21.77;13.73;;;;;;;;;;6283949;22;19999;-77
2021/11/19 04:38:13;;;;;;;21.45;14.68;;;;;;;;;;6310883;22;20412;-78
2021/11/19 04:40:40;;;;;;;24.90;16.10;;;;;;;;;;6311163;22;19996;-78
2021/11/19 04:43:06;;;;;;;21.92;14.98;;;;;;;;;;6283692;22;20336;-77
2021/11/19 04:45:34;;;;;;;24.85;14.02;;;;;;;;;;6311381;22;20031;-78
2021/11/19 04:48:00;;;;;;;22.40;13.57;;;;;;;;;;6311942;22;20022;-78
2021/11/19 04:50:30;;;;;;;20.15;15.05;;;;;;;;;;6286398;22;20438;-77
2021/11/19 04:52:57;;;;;;;23.13;15.13;;;;;;;;;;6285115;22;20037;-77
2021/11/19 04:55:24;;;;;;;22.52;15.35;;;;;;;;;;6311842;22;20424;-78
2021/11/19 04:57:50;;;;;;;23.65;15.30;;;;;;;;;;6286439;22;20003;-77
2021/11/19 05:00:22;;;;;;;21.25;15.10;;;;;;;;;;6313627;22;20025;-78
2021/11/19 05:02:48;;;;;;;21.52;14.77;;;;;;;;;;6311957;22;20035;-77
2021/11/19 05:05:15;;;;;;;23.90;16.23;;;;;;;;;;6312232;22;20070;-77
2021/11/19 05:07:41;;;;;;;23.98;16.17;;;;;;;;;;6285078;22;20004;-77
2021/11/19 05:10:07;;;;;;;25.80;15.98;;;;;;;;;;6312849;22;20007;-77
2021/11/19 05:12:39;;;;;;;25.73;16.30;;;;;;;;;;6285004;22;20435;-77
2021/11/19 05:15:06;;;;;;;20.90;14.95;;;;;;;;;;6285062;22;20002;-77
2021/11/19 05:17:34;;;;;;;23.98;15.30;;;;;;;;;;6285708;22;20011;-78
2021/11/19 05:20:00;;;;;;;21.90;15.35;;;;;;;;;;6285609;22;20074;-78
2021/11/19 05:22:27;;;;;;;25.33;15.55;;;;;;;;;;6312445;22;20007;-78
2021/11/19 05:24:53;;;;;;;26.23;16.55;;;;;;;;;;6311504;22;19999;-78
2021/11/19 05:27:20;;;;;;;26.83;16.30;;;;;;;;;;6311814;22;20498;-78
2021/11/19 05:29:46;;;;;;;20.67;15.07;;;;;;;;;;6285623;22;20035;-77
2021/11/19 05:32:13;;;;;;;21.52;14.90;;;;;;;;;;6285336;22;20030;-77
2021/11/19 05:34:39;;;;;;;22.40;15.43;;;;;;;;;;6312150;22;20062;-77
2021/11/19 05:37:06;;;;;;;23.25;17.17;;;;;;;;;;6311038;22;20325;-77
2021/11/19 05:39:32;;;;;;;27.73;17.80;;;;;;;;;;6310475;22;20316;-77
2021/11/19 05:41:58;;;;;;;31.48;19.35;;;;;;;;;;6310002;22;20003;-79
2021/11/19 05:44:25;;;;;;;34.75;22.85;;;;;;;;;;6283085;22;20663;-77
2021/11/19 05:46:51;;;;;;;33.72;23.58;;;;;;;;;;6310597;22;20424;-77
2021/11/19 05:49:18;;;;;;;33.20;21.70;;;;;;;;;;6283091;22;20007;-78
2021/11/19 05:51:45;;;;;;;34.60;22.58;;;;;;;;;;6281392;22;20015;-77
2021/11/19 05:54:12;;;;;;;29.65;20.40;;;;;;;;;;6311971;22;20041;-76
2021/11/19 05:56:38;;;;;;;36.83;21.10;;;;;;;;;;6329803;22;19994;-77
2021/11/19 05:59:06;;;;;;;29.67;19.10;;;;;;;;;;6315612;22;20027;-77
2021/11/19 06:01:35;;;;;;;29.73;18.60;;;;;;;;;;6313480;22;19999;-77
2021/11/19 06:04:24;;;;;;;34.35;20.83;;;;;;;;;;6328214;22;20061;-77
2021/11/19 06:07:03;;;;;;;37.28;22.38;;;;;;;;;;6180707;23;20005;-75
2021/11/19 06:09:31;;;;;;;43.60;25.23;;;;;;;;;;6215492;23;20539;-75
2021/11/19 06:12:03;;;;;;;55.03;30.10;;;;;;;;;;6215977;23;20013;-75
2021/11/19 06:14:34;;;;;;;52.65;30.75;;;;;;;;;;6214166;23;20028;-75
2021/11/19 06:19:41;;;;;;;73.43;43.55;;;;;;;;;;6342259;22;20018;-77
2021/11/19 06:22:13;;;;;;;104.68;59.10;;;;;;;;;;6355764;22;20054;-76
2021/11/19 06:24:56;;;;;;;65.63;41.30;;;;;;;;;;6352905;22;20038;-71
2021/11/19 06:28:00;;;;;;;46.30;29.83;;;;;;;;;;6335515;22;19990;-79
2021/11/19 06:30:27;;;;;;;42.00;24.83;;;;;;;;;;6290697;22;20000;-77
2021/11/19 06:32:56;;;;;;;42.58;24.67;;;;;;;;;;6292578;22;20015;-77
2021/11/19 06:35:22;;;;;;;45.10;26.55;;;;;;;;;;6264082;22;20090;-79
2021/11/19 06:37:48;;;;;;;36.40;24.20;;;;;;;;;;6267076;22;20063;-77
2021/11/19 06:40:21;;;;;;;35.05;25.52;;;;;;;;;;6239817;22;20019;-77
2021/11/19 06:43:00;;;;;;;35.33;21.90;;;;;;;;;;6280691;22;20030;-77
2021/11/19 07:51:36;;;;;;;25.63;15.98;;;;;;;;;;6317684;22;20030;-76
2021/11/19 07:54:03;;;;;;;23.27;15.30;;;;;;;;;;6265862;22;20408;-77
2021/11/19 07:57:00;;;;;;;26.40;15.57;;;;;;;;;;6297940;22;19989;-79
2021/11/19 07:59:53;;;;;;;24.60;14.75;;;;;;;;;;6330680;22;20049;-78
2021/11/19 08:02:23;;;;;;;18.67;13.85;;;;;;;;;;6327317;22;20038;-76
2021/11/19 08:05:15;;;;;;;18.73;13.23;;;;;;;;;;6327159;22;20010;-79
2021/11/19 08:07:44;;;;;;;21.13;14.07;;;;;;;;;;6321291;22;20007;-77
2021/11/19 08:10:53;;;;;;;20.42;14.52;;;;;;;;;;6318739;22;20022;-77
2021/11/19 08:13:22;;;;;;;19.88;14.75;;;;;;;;;;6287837;22;20481;-78
2021/11/19 08:15:49;;;;;;;21.98;15.00;;;;;;;;;;6320285;22;20004;-77
2021/11/19 08:18:22;;;;;;;20.45;13.48;;;;;;;;;;6323755;22;20010;-77
2021/11/19 08:20:49;;;;;;;21.05;12.82;;;;;;;;;;6319160;22;20400;-78
2021/11/19 08:23:21;;;;;;;22.23;14.77;;;;;;;;;;6314068;22;20037;-76
2021/11/19 08:25:47;;;;;;;17.42;11.30;;;;;;;;;;6314896;22;19999;-76
2021/11/19 08:28:14;;;;;;;17.30;12.10;;;;;;;;;;6315348;22;20578;-78
2021/11/19 08:30:41;;;;;;;17.08;12.60;;;;;;;;;;6314585;22;20019;-76
2021/11/19 08:33:12;;;;;;;17.20;12.50;;;;;;;;;;6323834;22;19999;-79
2021/11/19 08:35:40;;;;;;;18.27;13.60;;;;;;;;;;6314165;22;20003;-76
2021/11/19 08:38:06;;;;;;;20.63;13.75;;;;;;;;;;6312286;22;20002;-76
2021/11/19 08:40:35;;;;;;;20.20;13.52;;;;;;;;;;6322897;22;20043;-76
2021/11/19 08:43:01;;;;;;;18.35;11.52;;;;;;;;;;6312191;22;20061;-76
2021/11/19 08:45:30;;;;;;;16.63;11.93;;;;;;;;;;6314926;22;20125;-78
2021/11/19 08:47:57;;;;;;;18.10;11.57;;;;;;;;;;6307909;22;20314;-75
2021/11/19 08:50:25;;;;;;;20.45;11.45;;;;;;;;;;6307278;22;20015;-77
2021/11/19 08:52:51;;;;;;;16.35;11.00;;;;;;;;;;6309385;22;20098;-78
2021/11/19 08:55:18;;;;;;;16.63;11.13;;;;;;;;;;6312945;22;20082;-77
2021/11/19 08:57:45;;;;;;;15.70;11.30;;;;;;;;;;6313521;22;19999;-77
2021/11/19 09:00:18;;;;;;;16.45;11.27;;;;;;;;;;6316675;22;20003;-78
2021/11/19 09:02:45;;;;;;;18.27;12.65;;;;;;;;;;6288346;22;20096;-76
2021/11/19 09:05:11;;;;;;;15.20;11.13;;;;;;;;;;6319484;22;19999;-77
2021/11/19 09:07:37;;;;;;;17.00;11.65;;;;;;;;;;6314814;22;20090;-77
2021/11/19 09:10:13;;;;;;;19.05;12.23;;;;;;;;;;6311385;22;20010;-77
2021/11/19 09:12:40;;;;;;;21.88;12.75;;;;;;;;;;6314840;22;20023;-78
2021/11/19 09:15:07;;;;;;;22.73;13.32;;;;;;;;;;6327503;22;20006;-77
2021/11/19 09:17:51;;;;;;;17.88;11.07;;;;;;;;;;6320818;22;19999;-76
2021/11/19 09:20:38;;;;;;;18.10;11.57;;;;;;;;;;6327900;22;20011;-76
2021/11/19 09:23:15;;;;;;;21.52;12.70;;;;;;;;;;6312020;22;20007;-76
2021/11/19 09:25:43;;;;;;;15.40;10.85;;;;;;;;;;6315000;22;20003;-77
2021/11/19 09:28:10;;;;;;;18.77;11.13;;;;;;;;;;6317703;22;20456;-78
2021/11/19 09:30:40;;;;;;;42.65;23.42;;;;;;;;;;6317328;22;19999;-78
2021/11/19 09:33:12;;;;;;;22.75;14.68;;;;;;;;;;6313874;22;20007;-77
2021/11/19 09:35:50;;;;;;;69.13;26.45;;;;;;;;;;6321198;22;20010;-73
2021/11/19 09:38:19;;;;;;;59.15;31.10;;;;;;;;;;6300434;22;20008;-74
2021/11/19 09:41:02;;;;;;;80.65;39.88;;;;;;;;;;6291503;22;20067;-79
2021/11/19 09:43:34;;;;;;;26.23;14.60;;;;;;;;;;6277117;22;20020;-75
2021/11/19 09:46:06;;;;;;;20.85;12.75;;;;;;;;;;6277929;22;20003;-76
2021/11/19 09:48:45;;;;;;;17.35;10.75;;;;;;;;;;6279107;22;20054;-76
2021/11/19 09:51:17;;;;;;;18.38;12.63;;;;;;;;;;6257765;22;20071;-76
2021/11/19 09:53:55;;;;;;;22.98;14.00;;;;;;;;;;6221417;23;20008;-73
2021/11/19 09:56:21;;;;;;;16.25;9.68;;;;;;;;;;6264254;23;20004;-79
2021/11/19 09:58:51;;;;;;;13.77;9.88;;;;;;;;;;6249888;23;20004;-77
2021/11/19 10:01:43;;;;;;;17.67;10.45;;;;;;;;;;6249197;23;20027;-77
2021/11/19 10:04:29;;;;;;;18.27;9.43;;;;;;;;;;6282286;22;20008;-78
2021/11/19 10:07:15;;;;;;;26.95;14.70;;;;;;;;;;6287305;22;20003;-77
2021/11/19 10:09:47;;;;;;;19.67;12.88;;;;;;;;;;6288028;22;20000;-78
2021/11/19 10:12:24;;;;;;;24.00;10.90;;;;;;;;;;6287961;22;20000;-78
2021/11/19 10:15:03;;;;;;;17.27;8.48;;;;;;;;;;6283659;22;20000;-76
2021/11/19 10:17:48;;;;;;;13.40;8.10;;;;;;;;;;6282036;22;20011;-77
2021/11/19 10:20:14;;;;;;;12.43;7.68;;;;;;;;;;6283749;22;20029;-75
2021/11/19 10:22:46;;;;;;;12.63;7.78;;;;;;;;;;6279343;22;20014;-76
2021/11/19 10:25:27;;;;;;;13.38;7.32;;;;;;;;;;6280300;22;20434;-75
2021/11/19 10:27:55;;;;;;;11.13;6.78;;;;;;;;;;6283417;22;20000;-76
2021/11/19 10:30:37;;;;;;;10.68;6.90;;;;;;;;;;6285528;22;20000;-77
2021/11/19 10:33:27;;;;;;;10.20;6.95;;;;;;;;;;6286450;22;19990;-77
2021/11/19 10:36:31;;;;;;;11.45;7.03;;;;;;;;;;6265087;22;20037;-79
2021/11/19 10:39:16;;;;;;;10.10;6.80;;;;;;;;;;6255911;22;20004;-75
2021/11/19 10:42:03;;;;;;;13.05;9.25;;;;;;;;;;6278315;22;20322;-75
2021/11/19 10:44:47;;;;;;;15.63;8.18;;;;;;;;;;6279889;22;20063;-77
2021/11/19 10:47:38;;;;;;;12.45;7.90;;;;;;;;;;6286103;22;20030;-75
2021/11/19 10:50:23;;;;;;;11.45;6.93;;;;;;;;;;6285523;22;20030;-74
2021/11/19 10:52:49;;;;;;;10.32;6.93;;;;;;;;;;6277828;22;19999;-77
2021/11/19 10:55:21;;;;;;;18.95;7.45;;;;;;;;;;6278172;22;20018;-74
2021/11/19 10:58:14;;;;;;;17.10;9.55;;;;;;;;;;6281795;22;20065;-75
2021/11/19 11:01:09;;;;;;;16.17;9.70;;;;;;;;;;6309955;22;20007;-77
2021/11/19 11:03:44;;;;;;;13.68;7.45;;;;;;;;;;6215676;23;20020;-75
2021/11/19 11:06:12;;;;;;;12.57;8.52;;;;;;;;;;6216826;23;20004;-74
2021/11/19 11:08:41;;;;;;;13.88;7.93;;;;;;;;;;6216414;23;20009;-76
2021/11/19 11:11:40;;;;;;;11.13;7.57;;;;;;;;;;6231570;23;20047;-75
2021/11/19 11:21:50;;;;;;;19.92;10.57;;;;;;;;;;6344347;22;20080;-75
2021/11/19 11:24:43;;;;;;;14.45;9.18;;;;;;;;;;6333207;22;20006;-79
2021/11/19 11:27:13;;;;;;;16.67;10.88;;;;;;;;;;6330829;22;20070;-75
2021/11/19 11:29:47;;;;;;;12.10;8.63;;;;;;;;;;6325036;22;19999;-78
2021/11/19 11:32:35;;;;;;;15.27;8.60;;;;;;;;;;6328652;22;20056;-77
2021/11/19 11:35:13;;;;;;;11.82;7.90;;;;;;;;;;6355647;22;20002;-79
2021/11/19 11:37:58;;;;;;;17.00;8.75;;;;;;;;;;6331262;22;20005;-78
2021/11/19 11:40:39;;;;;;;35.75;18.92;;;;;;;;;;6360253;22;20003;-79
2021/11/19 11:45:44;;;;;;;20.48;11.55;;;;;;;;;;6360201;22;20082;-77
2021/11/19 11:48:20;;;;;;;13.38;9.80;;;;;;;;;;6333501;22;20009;-76
2021/11/19 11:50:58;;;;;;;22.02;11.98;;;;;;;;;;6332551;22;20005;-78
2021/11/19 11:53:29;;;;;;;12.25;8.63;;;;;;;;;;6359875;22;20034;-77
2021/11/19 11:56:13;;;;;;;16.75;10.57;;;;;;;;;;6359860;22;20002;-76
2021/11/19 11:58:56;;;;;;;18.73;10.70;;;;;;;;;;6327953;22;20051;-78
2021/11/19 12:01:43;;;;;;;14.85;9.60;;;;;;;;;;6346453;22;20082;-77
2021/11/19 12:04:14;;;;;;;18.50;10.23;;;;;;;;;;6334302;22;19990;-80
2021/11/19 12:06:58;;;;;;;18.67;11.20;;;;;;;;;;6326120;22;20002;-78
2021/11/19 12:09:28;;;;;;;17.60;10.52;;;;;;;;;;6351324;22;19999;-77
2021/11/19 12:11:57;;;;;;;14.88;10.10;;;;;;;;;;6351181;22;19999;-76
2021/11/19 12:14:39;;;;;;;16.95;9.15;;;;;;;;;;6325279;22;20042;-77
2021/11/19 12:20:19;;;;;;;;;;;;;;;;;;;;;
2021/11/19 12:22:46;;;;;;;;;;;;;;;;;;6360779;22;20007;-75
2021/11/19 12:25:14;;;;;;;18.85;11.50;;;;;;;;;;6329875;22;19910;-74
2021/11/19 12:27:48;;;;;;;16.58;11.15;;;;;;;;;;6321872;22;19999;-76
2021/11/19 12:30:26;;;;;;;16.50;10.77;;;;;;;;;;6361402;22;20006;-78
2021/11/19 12:33:03;;;;;;;19.77;12.85;;;;;;;;;;6333268;22;19998;-73
2021/11/19 12:35:42;;;;;;;18.50;12.38;;;;;;;;;;6355097;22;20010;-79
2021/11/19 12:38:31;;;;;;;16.67;11.10;;;;;;;;;;6333100;22;20010;-78
2021/11/19 12:41:17;;;;;;;19.38;12.60;;;;;;;;;;6330948;22;20062;-76
2021/11/19 12:44:03;;;;;;;24.05;12.68;;;;;;;;;;6335318;22;20003;-73
2021/11/19 12:46:49;;;;;;;19.77;12.73;;;;;;;;;;6363159;22;19983;-73
2021/11/19 12:49:22;;;;;;;24.38;14.77;;;;;;;;;;6329089;22;20002;-78
2021/11/19 12:51:48;;;;;;;;;;;;;;;;;;6361139;22;19991;-76
2021/11/19 12:54:43;;;;;;;24.88;14.50;;;;;;;;;;6305185;22;19906;-79
2021/11/19 12:57:29;;;;;;;21.13;13.82;;;;;;;;;;6360870;22;19999;-73
2021/11/19 13:00:17;;;;;;;26.65;16.15;;;;;;;;;;6323117;22;20044;-76
2021/11/19 14:37:53;;;;;;;19.35;11.32;;;;;;;;;;6345535;22;20689;-79
2021/11/19 15:39:12;;;;;;;20.73;13.63;;;;;;;;;;6353139;22;20044;-80
2021/11/19 15:42:03;;;;;;;19.02;12.70;;;;;;;;;;6362955;22;20021;-82
2021/11/19 15:44:37;;;;;;;17.23;10.10;;;;;;;;;;6331656;22;19995;-78
2021/11/19 15:47:23;;;;;;;15.43;11.35;;;;;;;;;;6336142;22;20041;-77
2021/11/19 15:50:02;;;;;;;13.15;8.43;;;;;;;;;;6360263;22;19995;-75
2021/11/19 15:52:39;;;;;;;12.32;8.68;;;;;;;;;;6342801;22;20003;-74
2021/11/19 15:55:10;;;;;;;14.55;8.65;;;;;;;;;;6343562;22;19999;-73
2021/11/19 15:57:39;;;;;;;14.70;8.93;;;;;;;;;;6319441;22;20007;-75
2021/11/19 16:00:14;;;;;;;12.35;9.07;;;;;;;;;;6345363;22;20317;-75
2021/11/19 16:03:00;;;;;;;11.35;8.23;;;;;;;;;;6340989;22;20022;-76
2021/11/19 16:05:45;;;;;;;33.50;16.77;;;;;;;;;;6215078;23;20063;-73
2021/11/19 16:08:30;;;;;;;15.15;9.27;;;;;;;;;;6216445;23;20020;-77
2021/11/19 16:11:14;;;;;;;16.40;10.57;;;;;;;;;;6218197;23;20008;-76
2021/11/19 16:13:42;;;;;;;25.88;13.77;;;;;;;;;;6217222;23;20058;-75
2021/11/19 16:16:13;;;;;;;43.38;21.27;;;;;;;;;;6217778;23;20004;-75
2021/11/19 16:18:42;;;;;;;362.25;132.32;;;;;;;;;;6220195;23;20008;-76
2021/11/19 16:21:10;;;;;;;98.05;58.13;;;;;;;;;;6220500;23;20028;-76
2021/11/19 16:23:38;;;;;;;29.05;12.10;;;;;;;;;;6221835;23;20020;-77
2021/11/19 16:26:14;;;;;;;15.95;10.80;;;;;;;;;;6238748;23;20028;-76
2021/11/19 16:28:43;;;;;;;17.73;11.07;;;;;;;;;;6211134;23;19989;-75
2021/11/19 16:31:11;;;;;;;17.77;10.85;;;;;;;;;;6210385;23;20004;-76
2021/11/19 16:33:39;;;;;;;17.77;11.35;;;;;;;;;;6217532;23;20025;-76
2021/11/19 16:38:54;;;;;;;17.05;10.63;;;;;;;;;;6205135;22;20031;-77
2021/11/19 16:41:25;;;;;;;14.10;10.40;;;;;;;;;;6229030;23;19989;-76
2021/11/19 16:44:23;;;;;;;17.58;10.77;;;;;;;;;;6329902;22;19994;-80
2021/11/19 16:47:16;;;;;;;16.00;10.32;;;;;;;;;;6235827;23;20013;-79
2021/11/19 16:49:44;;;;;;;15.73;9.38;;;;;;;;;;6210486;23;20064;-79
2021/11/19 16:52:28;;;;;;;16.33;9.88;;;;;;;;;;6229539;23;20005;-79
2021/11/19 16:55:14;;;;;;;15.38;9.73;;;;;;;;;;6161153;23;20001;-79
2021/11/19 16:57:40;;;;;;;14.88;9.20;;;;;;;;;;6188639;23;20008;-79
2021/11/19 17:00:12;;;;;;;15.00;9.63;;;;;;;;;;6233709;23;20032;-80
2021/11/19 17:02:38;;;;;;;13.77;9.57;;;;;;;;;;6230239;23;20035;-78
2021/11/19 17:05:07;;;;;;;14.15;8.68;;;;;;;;;;6232980;23;20006;-80
2021/11/19 17:07:33;;;;;;;16.80;9.85;;;;;;;;;;6237573;23;20010;-77
2021/11/19 17:13:38;;;;;;;14.90;9.15;;;;;;;;;;6239120;23;20012;-77
2021/11/19 17:16:28;;;;;;;14.52;9.10;;;;;;;;;;6149592;23;20058;-76
2021/11/19 17:19:00;;;;;;;15.73;8.40;;;;;;;;;;6147174;23;20021;-78
2021/11/19 17:21:30;;;;;;;13.65;9.57;;;;;;;;;;6119906;23;20010;-77
2021/11/19 17:23:57;;;;;;;14.35;9.23;;;;;;;;;;6186252;23;20009;-79
2021/11/19 17:26:26;;;;;;;17.35;9.80;;;;;;;;;;6170788;23;20005;-77
2021/11/19 17:28:53;;;;;;;13.77;9.43;;;;;;;;;;6194358;23;20004;-78
2021/11/19 17:31:23;;;;;;;14.90;9.40;;;;;;;;;;6197224;23;20091;-77
2021/11/19 17:33:49;;;;;;;13.98;9.32;;;;;;;;;;6197333;23;19997;-78
2021/11/19 17:36:19;;;;;;;16.35;9.98;;;;;;;;;;6194474;23;20092;-78
2021/11/19 17:39:05;;;;;;;37.17;25.02;;;;;;;;;;6195852;23;20013;-76
2021/11/19 17:41:31;;;;;;;23.52;14.23;;;;;;;;;;6141962;23;20016;-75
2021/11/19 17:44:00;;;;;;;23.15;14.10;;;;;;;;;;6159794;23;20017;-78
2021/11/19 17:46:28;;;;;;;17.88;11.68;;;;;;;;;;6179147;23;20025;-78
2021/11/19 17:48:55;;;;;;;17.65;11.77;;;;;;;;;;6227488;23;20079;-79
2021/11/19 17:51:23;;;;;;;17.52;12.95;;;;;;;;;;6230957;23;19985;-79
2021/11/19 17:53:50;;;;;;;18.42;13.25;;;;;;;;;;6186375;23;20007;-78
2021/11/19 17:56:30;;;;;;;18.40;12.60;;;;;;;;;;6187315;23;20012;-80
2021/11/19 17:58:58;;;;;;;16.02;10.05;;;;;;;;;;6235328;23;20073;-79
2021/11/19 18:01:25;;;;;;;18.27;12.55;;;;;;;;;;6232385;23;20007;-79
2021/11/19 18:03:52;;;;;;;24.95;12.15;;;;;;;;;;6200643;23;20020;-78
2021/11/19 18:06:19;;;;;;;23.00;14.63;;;;;;;;;;6223965;23;20004;-78
2021/11/19 18:08:47;;;;;;;19.40;12.52;;;;;;;;;;6226943;23;20011;-79
2021/11/19 18:11:38;;;;;;;17.42;11.82;;;;;;;;;;6208430;23;20011;-80
2021/11/19 18:14:08;;;;;;;18.95;11.30;;;;;;;;;;6229622;23;20009;-78
2021/11/19 18:16:35;;;;;;;17.73;13.63;;;;;;;;;;6198643;23;20001;-79
2021/11/19 18:19:02;;;;;;;17.25;12.48;;;;;;;;;;6276477;22;20008;-77
2021/11/19 18:21:30;;;;;;;16.70;11.68;;;;;;;;;;6258126;22;20333;-76
2021/11/19 18:23:57;;;;;;;17.83;12.35;;;;;;;;;;6288908;22;20082;-76
2021/11/19 18:26:25;;;;;;;19.85;13.52;;;;;;;;;;6282426;22;20007;-78
2021/11/19 18:28:52;;;;;;;17.48;12.50;;;;;;;;;;6288560;22;20434;-76
2021/11/19 18:31:21;;;;;;;16.95;12.00;;;;;;;;;;6290091;22;20016;-79
2021/11/19 18:33:50;;;;;;;18.73;11.43;;;;;;;;;;6292002;22;20074;-79
2021/11/19 18:36:17;;;;;;;15.80;11.07;;;;;;;;;;6292075;22;19996;-79
2021/11/19 18:38:47;;;;;;;19.10;12.55;;;;;;;;;;6292882;22;20004;-78
2021/11/19 18:41:21;;;;;;;21.83;13.77;;;;;;;;;;6320413;22;20009;-79
2021/11/19 18:43:51;;;;;;;22.00;13.73;;;;;;;;;;6319777;22;20018;-78
2021/11/19 18:46:18;;;;;;;18.77;12.85;;;;;;;;;;6313521;22;20055;-77
2021/11/19 18:48:45;;;;;;;19.25;12.63;;;;;;;;;;6317393;22;20011;-78
2021/11/19 18:51:15;;;;;;;24.98;14.95;;;;;;;;;;6317481;22;19995;-78
2021/11/19 18:53:47;;;;;;;19.02;12.60;;;;;;;;;;6318875;22;20004;-78